Time;durP1;ratioP1;P1;durP2;ratioP2;P2;SDS_P1;SDS_P2;PMS_P1;PMS_P2;Temp;Humidity;BMP_temperature;BMP_pressure;BME280_temperature;BME280_humidity;BME280_pressure;Samples;Min_cycle;Max_cycle;Signal;HPM_P1;HPM_P2
2021/06/19 00:00:58;;;;;;;;;7.00;7.00;;;;;22.76;58.76;100740.75;4906947;29;46442;-79
2021/06/19 00:03:24;;;;;;;;;7.00;6.25;;;;;22.78;58.86;100743.22;4907040;29;45595;-81
2021/06/19 00:05:49;;;;;;;;;6.00;6.00;;;;;22.79;59.48;100747.53;4903634;29;45469;-81
2021/06/19 00:08:15;;;;;;;;;6.75;6.00;;;;;22.79;58.77;100748.38;4900191;29;45720;-81
2021/06/19 00:10:41;;;;;;;;;6.75;6.25;;;;;22.80;59.21;100743.84;4899952;29;45799;-81
2021/06/19 00:13:08;;;;;;;;;6.25;6.25;;;;;22.86;59.45;100740.44;4900015;29;46560;-80
2021/06/19 00:15:34;;;;;;;;;8.00;6.00;;;;;22.70;59.33;100722.75;4899291;29;45709;-81
2021/06/19 00:21:21;;;;;;;;;5.75;5.50;;;;;22.84;59.46;100747.81;4898920;29;45647;-81
2021/06/19 00:23:46;;;;;;;;;6.00;5.75;;;;;22.74;59.32;100741.91;4899646;29;45654;-82
2021/06/19 00:26:12;;;;;;;;;5.00;5.00;;;;;22.78;58.96;100757.41;4899759;29;45629;-80
2021/06/19 00:28:38;;;;;;;;;6.00;6.00;;;;;22.75;59.55;100747.09;4899990;29;45753;-82
2021/06/19 00:31:04;;;;;;;;;8.00;7.00;;;;;22.67;59.22;100741.81;4899652;29;45615;-81
2021/06/19 00:33:31;;;;;;;;;6.00;6.00;;;;;22.53;60.09;100727.44;4899736;29;45721;-82
2021/06/19 00:35:56;;;;;;;;;4.75;4.75;;;;;22.53;59.68;100751.47;4900172;29;45547;-83
2021/06/19 00:38:22;;;;;;;;;7.00;6.50;;;;;22.37;60.17;100738.28;4900465;29;45761;-80
2021/06/19 00:40:47;;;;;;;;;6.00;6.00;;;;;22.38;60.25;100747.13;4899742;29;46476;-84
2021/06/19 00:43:13;;;;;;;;;7.00;7.00;;;;;22.22;60.15;100724.09;4899591;29;46276;-83
2021/06/19 00:45:39;;;;;;;;;6.25;6.25;;;;;22.16;60.48;100717.63;4899562;29;45629;-83
2021/06/19 00:51:26;;;;;;;;;5.25;5.00;;;;;22.16;60.55;100743.50;4899222;29;46069;-82
2021/06/19 00:53:51;;;;;;;;;6.25;6.25;;;;;22.16;59.95;100747.00;4899434;29;45632;-84
2021/06/19 00:56:19;;;;;;;;;5.75;5.75;;;;;22.11;60.29;100748.53;4899294;29;45565;-86
2021/06/19 00:58:44;;;;;;;;;6.25;6.25;;;;;22.03;60.73;100741.44;4899774;29;45692;-84
2021/06/19 01:01:10;;;;;;;;;6.50;6.50;;;;;22.06;60.74;100749.09;4899036;29;45609;-83
2021/06/19 01:03:36;;;;;;;;;5.75;5.75;;;;;22.03;60.55;100753.94;4899399;29;45634;-83
2021/06/19 01:06:01;;;;;;;;;7.00;6.00;;;;;21.78;61.42;100716.75;4881878;29;46127;-81
2021/06/19 01:08:26;;;;;;;;;6.25;5.75;;;;;21.92;61.33;100747.16;4899228;29;45771;-80
2021/06/19 01:10:54;;;;;;;;;6.00;6.00;;;;;21.85;61.45;100743.56;4898816;29;45580;-80
2021/06/19 01:13:19;;;;;;;;;6.25;6.25;;;;;21.66;61.43;100717.34;4899335;29;46055;-81
2021/06/19 01:15:45;;;;;;;;;5.25;5.25;;;;;21.80;60.98;100729.09;4899143;29;45661;-80
2021/06/19 01:21:32;;;;;;;;;4.00;4.00;;;;;21.82;61.41;100735.06;4899495;29;46085;-81
2021/06/19 01:23:58;;;;;;;;;5.00;4.50;;;;;21.81;61.20;100717.44;4903333;29;46748;-80
2021/06/19 01:26:27;;;;;;;;;3.50;3.50;;;;;21.65;61.30;100700.53;4885230;29;45661;-80
2021/06/19 01:28:53;;;;;;;;;3.75;3.75;;;;;21.74;61.21;100723.47;4904407;29;45658;-80
2021/06/19 01:31:20;;;;;;;;;5.00;4.00;;;;;21.70;61.20;100711.47;4904921;29;45490;-81
2021/06/19 01:33:46;;;;;;;;;4.75;4.00;;;;;21.62;61.24;100716.88;4903970;29;45863;-81
2021/06/19 01:36:13;;;;;;;;;6.25;6.00;;;;;21.70;61.40;100738.16;4900870;29;45690;-81
2021/06/19 01:38:48;;;;;;;;;5.00;4.50;;;;;21.70;61.32;100742.69;4899134;29;45590;-80
2021/06/19 01:41:15;;;;;;;;;5.50;5.00;;;;;21.57;61.09;100710.44;4898156;29;46576;-82
2021/06/19 01:43:41;;;;;;;;;5.25;5.00;;;;;21.69;61.47;100749.84;4898882;29;46372;-81
2021/06/19 01:46:07;;;;;;;;;5.00;5.00;;;;;21.64;61.32;100740.72;4898826;29;45702;-80
2021/06/19 01:51:55;;;;;;;;;5.25;5.25;;;;;21.66;61.59;100754.69;4898196;29;45593;-80
2021/06/19 01:54:21;;;;;;;;;6.00;5.50;;;;;21.45;61.70;100718.00;4898619;29;45511;-80
2021/06/19 01:56:46;;;;;;;;;5.25;5.00;;;;;21.63;60.94;100757.72;4880954;29;46216;-80
2021/06/19 01:59:12;;;;;;;;;3.75;3.25;;;;;21.56;61.30;100743.44;4898914;29;45502;-82
2021/06/19 02:01:37;;;;;;;;;7.00;6.00;;;;;21.50;61.17;100739.63;4898252;29;45457;-80
2021/06/19 02:04:02;;;;;;;;;5.00;5.00;;;;;21.57;61.33;100751.25;4898205;29;46032;-81
2021/06/19 02:06:28;;;;;;;;;4.00;4.00;;;;;21.67;61.15;100748.34;4898126;29;45453;-79
2021/06/19 02:09:06;;;;;;;;;3.00;3.00;;;;;21.66;61.21;100749.34;4898430;29;45535;-80
2021/06/19 02:11:32;;;;;;;;;4.75;4.75;;;;;21.63;61.10;100744.38;4898119;29;46404;-82
2021/06/19 02:13:58;;;;;;;;;3.25;3.00;;;;;21.62;61.25;100745.41;4897747;29;45953;-81
2021/06/19 02:16:23;;;;;;;;;4.00;4.00;;;;;21.66;60.96;100744.03;4898238;29;45769;-80
2021/06/19 02:22:10;;;;;;;;;5.75;5.00;;;;;21.68;60.96;100744.69;4896387;29;45945;-81
2021/06/19 02:24:36;;;;;;;;;4.00;4.00;;;;;21.46;60.88;100703.66;4898094;29;45682;-82
2021/06/19 02:27:12;;;;;;;;;5.00;5.00;;;;;21.59;61.27;100711.91;4897972;29;45667;-79
2021/06/19 02:29:39;;;;;;;;;4.00;4.00;;;;;21.66;61.10;100726.19;4881039;29;45754;-79
2021/06/19 02:32:06;;;;;;;;;5.25;5.00;;;;;21.64;60.85;100722.06;4897658;29;46525;-80
2021/06/19 02:34:32;;;;;;;;;5.00;4.25;;;;;21.73;60.96;100737.81;4897747;29;45465;-80
2021/06/19 02:36:58;;;;;;;;;5.00;5.00;;;;;21.76;60.91;100744.63;4898020;29;45689;-80
2021/06/19 02:39:24;;;;;;;;;4.00;4.00;;;;;21.76;61.24;100755.28;4897587;29;45645;-81
2021/06/19 02:41:49;;;;;;;;;6.00;5.75;;;;;21.78;60.81;100770.13;4897524;29;45961;-80
2021/06/19 02:44:15;;;;;;;;;5.25;5.25;;;;;21.77;61.21;100764.94;4897766;29;45568;-80
2021/06/19 02:46:40;;;;;;;;;6.00;6.00;;;;;21.76;61.20;100766.78;4897929;29;45733;-80
2021/06/19 02:49:06;;;;;;;;;7.00;7.00;;;;;21.75;61.56;100759.78;4898003;29;45725;-81
2021/06/19 02:51:31;;;;;;;;;8.25;7.50;;;;;21.60;61.45;100745.56;4897644;29;46597;-82
2021/06/19 02:53:56;;;;;;;;;5.50;4.75;;;;;21.74;61.09;100774.16;4897748;29;46335;-82
2021/06/19 02:56:22;;;;;;;;;4.50;4.50;;;;;21.67;61.65;100759.03;4897971;29;45693;-80
2021/06/19 02:58:47;;;;;;;;;5.75;5.00;;;;;21.48;61.24;100727.50;4897854;29;45732;-79
2021/06/19 03:01:12;;;;;;;;;4.75;4.75;;;;;21.48;61.57;100727.50;4899338;29;45621;-78
2021/06/19 03:06:59;;;;;;;;;5.50;5.50;;;;;21.65;61.03;100771.69;4904824;29;45540;-81
2021/06/19 03:09:25;;;;;;;;;7.00;6.25;;;;;21.58;61.38;100765.44;4904631;29;45542;-81
2021/06/19 03:11:50;;;;;;;;;9.00;8.25;;;;;21.61;61.40;100765.06;4899183;29;46652;-81
2021/06/19 03:14:16;;;;;;;;;7.25;6.25;;;;;21.61;61.56;100767.72;4897948;29;45764;-83
2021/06/19 03:16:42;;;;;;;;;7.00;6.25;;;;;21.49;61.61;100750.47;4897798;29;45839;-81
2021/06/19 03:22:28;;;;;;;;;5.50;5.25;;;;;21.46;61.81;100748.16;4896400;29;45623;-81
2021/06/19 03:24:54;;;;;;;;;5.00;5.00;;;;;21.37;61.63;100722.56;4880151;29;48619;-82
2021/06/19 03:27:20;;;;;;;;;6.25;5.75;;;;;21.51;62.06;100751.13;4897233;29;45926;-82
2021/06/19 03:29:45;;;;;;;;;4.00;4.00;;;;;21.34;61.52;100710.41;4896807;29;45608;-80
2021/06/19 03:32:11;;;;;;;;;5.00;5.00;;;;;21.56;61.48;100746.09;4896996;29;46554;-83
2021/06/19 03:34:37;;;;;;;;;4.00;3.25;;;;;21.55;61.50;100755.94;4897318;29;45729;-83
2021/06/19 03:37:04;;;;;;;;;3.75;3.25;;;;;21.47;61.52;100753.31;4897341;29;45582;-82
2021/06/19 03:39:32;;;;;;;;;3.00;3.00;;;;;21.29;61.48;100726.09;4897137;29;45625;-81
2021/06/19 03:41:58;;;;;;;;;3.75;3.75;;;;;21.26;61.05;100716.63;4896553;29;45580;-82
2021/06/19 03:44:24;;;;;;;;;4.00;4.00;;;;;21.16;61.27;100708.00;4896799;29;45857;-81
2021/06/19 03:46:50;;;;;;;;;4.00;4.00;;;;;21.46;61.58;100741.00;4897223;29;45660;-82
2021/06/19 03:52:37;;;;;;;;;3.00;2.75;;;;;21.35;61.56;100750.22;4899148;29;46147;-81
2021/06/19 03:55:05;;;;;;;;;4.25;3.50;;;;;21.27;61.57;100741.44;4899970;29;46436;-81
2021/06/19 03:57:32;;;;;;;;;4.25;4.25;;;;;21.33;61.28;100752.22;4899996;29;45610;-82
2021/06/19 03:59:58;;;;;;;;;4.00;4.00;;;;;21.23;61.39;100727.63;4900109;29;45699;-82
2021/06/19 04:02:25;;;;;;;;;4.50;3.00;;;;;21.31;61.21;100750.75;4899519;29;45641;-82
2021/06/19 04:04:51;;;;;;;;;4.00;4.00;;;;;21.35;61.57;100773.38;4899886;29;45946;-81
2021/06/19 04:07:18;;;;;;;;;3.75;3.75;;;;;21.33;61.32;100752.22;4900035;29;45592;-80
2021/06/19 04:09:46;;;;;;;;;4.75;4.00;;;;;21.37;61.56;100757.22;4899978;29;45813;-81
2021/06/19 04:12:12;;;;;;;;;4.00;4.00;;;;;21.22;61.31;100728.63;4899404;29;47563;-81
2021/06/19 04:14:37;;;;;;;;;3.25;3.25;;;;;21.38;61.54;100754.34;4899745;29;46563;-83
2021/06/19 04:17:03;;;;;;;;;3.50;3.50;;;;;21.24;61.17;100729.28;4899706;29;45552;-82
2021/06/19 04:22:50;;;;;;;;;3.25;3.25;;;;;21.18;61.77;100734.50;4898747;29;46159;-82
2021/06/19 04:25:18;;;;;;;;;3.50;3.50;;;;;21.36;61.79;100769.72;4899849;29;46450;-82
2021/06/19 04:27:48;;;;;;;;;4.00;4.00;;;;;21.34;61.72;100756.56;4900212;29;45683;-83
2021/06/19 04:30:15;;;;;;;;;4.50;4.50;;;;;21.35;61.62;100758.22;4900471;29;45778;-81
2021/06/19 04:32:41;;;;;;;;;4.00;3.00;;;;;21.37;61.44;100765.22;4903456;29;45968;-84
2021/06/19 04:35:07;;;;;;;;;4.00;4.00;;;;;21.37;61.43;100752.72;4906667;29;46222;-81
2021/06/19 04:37:33;;;;;;;;;4.00;4.00;;;;;21.14;61.57;100725.16;4904659;29;45546;-80
2021/06/19 04:42:36;;;;;;;;;5.00;4.50;;;;;21.16;61.81;100721.34;4898337;29;46277;-82
2021/06/19 04:45:03;;;;;;;;;5.25;5.25;;;;;21.41;61.09;100739.88;4898034;29;45961;-79
2021/06/19 04:47:30;;;;;;;;;5.00;5.00;;;;;21.48;62.13;100757.66;4897225;29;45759;-81
2021/06/19 04:49:57;;;;;;;;;5.50;4.75;;;;;21.25;61.23;100720.31;4897016;29;45675;-80
2021/06/19 04:52:23;;;;;;;;;6.00;5.00;;;;;21.41;61.26;100743.38;4896671;29;46579;-81
2021/06/19 04:54:49;;;;;;;;;3.00;3.00;;;;;21.36;61.32;100732.41;4896928;29;46096;-80
2021/06/19 04:57:14;;;;;;;;;5.50;4.50;;;;;21.44;61.26;100755.50;4897113;29;45662;-81
2021/06/19 04:59:40;;;;;;;;;7.00;5.25;;;;;21.55;61.61;100769.25;4895446;29;45601;-80
2021/06/19 05:02:05;;;;;;;;;5.00;5.00;;;;;21.51;61.08;100753.78;4879445;29;48009;-82
2021/06/19 05:07:52;;;;;;;;;5.00;5.00;;;;;21.65;61.33;100772.53;4896733;29;45776;-79
2021/06/19 05:10:18;;;;;;;;;5.00;5.00;;;;;21.66;61.52;100768.84;4897414;29;45602;-79
2021/06/19 05:12:43;;;;;;;;;6.00;6.00;;;;;21.43;61.75;100736.00;4879646;29;45636;-79
2021/06/19 05:15:12;;;;;;;;;7.00;6.00;;;;;21.67;61.29;100777.69;4896663;29;45604;-80
2021/06/19 05:17:39;;;;;;;;;5.50;5.50;;;;;21.66;61.45;100782.19;4897155;29;45701;-81
2021/06/19 05:20:06;;;;;;;;;7.00;6.75;;;;;21.60;61.62;100761.56;4897359;29;45822;-79
2021/06/19 05:22:31;;;;;;;;;5.75;5.00;;;;;21.51;61.90;100738.63;4881472;29;46476;-79
2021/06/19 05:24:57;;;;;;;;;6.50;6.00;;;;;21.66;61.63;100770.69;4881258;29;48120;-80
2021/06/19 05:27:23;;;;;;;;;6.00;6.00;;;;;21.66;61.45;100776.03;4898543;29;45773;-79
2021/06/19 05:29:48;;;;;;;;;5.00;5.00;;;;;21.71;61.35;100784.31;4898676;29;45782;-79
2021/06/19 05:32:14;;;;;;;;;6.25;6.00;;;;;21.74;61.63;100776.81;4898351;29;46741;-82
2021/06/19 05:38:01;;;;;;;;;7.25;7.00;;;;;21.80;61.93;100783.28;4898199;29;45621;-80
2021/06/19 05:40:26;;;;;;;;;7.25;7.00;;;;;21.75;61.22;100767.00;4898606;29;45741;-82
2021/06/19 05:42:55;;;;;;;;;7.50;7.00;;;;;21.88;61.91;100775.22;4898803;29;45851;-81
2021/06/19 05:45:20;;;;;;;;;6.00;5.50;;;;;21.69;61.70;100733.03;4898387;29;45906;-79
2021/06/19 05:47:45;;;;;;;;;8.25;7.50;;;;;21.93;61.52;100761.31;4898491;29;45819;-79
2021/06/19 05:50:11;;;;;;;;;6.50;6.50;;;;;21.70;61.64;100710.69;4898658;29;45618;-79
2021/06/19 05:52:37;;;;;;;;;6.25;6.25;;;;;21.91;61.69;100747.34;4898705;29;45456;-79
2021/06/19 05:55:04;;;;;;;;;9.00;9.00;;;;;21.89;61.26;100738.69;4898794;29;46185;-79
2021/06/19 05:57:29;;;;;;;;;6.50;6.50;;;;;22.01;61.46;100762.16;4898660;29;45502;-79
2021/06/19 05:59:55;;;;;;;;;7.50;7.25;;;;;22.00;61.69;100759.66;4898931;29;45616;-81
2021/06/19 06:02:20;;;;;;;;;6.00;6.00;;;;;22.05;61.48;100770.63;4903070;29;45554;-79
2021/06/19 06:08:07;;;;;;;;;17.50;16.50;;;;;22.03;61.29;100744.09;4904649;29;45555;-82
2021/06/19 06:10:35;;;;;;;;;7.00;6.00;;;;;22.11;61.15;100756.56;4900607;29;45472;-82
2021/06/19 06:13:01;;;;;;;;;6.00;6.00;;;;;21.95;61.43;100724.66;4897249;29;46633;-82
2021/06/19 06:15:26;;;;;;;;;8.25;8.00;;;;;22.14;61.30;100749.00;4897438;29;45901;-80
2021/06/19 06:17:52;;;;;;;;;6.00;6.00;;;;;22.04;61.16;100724.41;4897798;29;45870;-80
2021/06/19 06:23:23;;;;;;;;;5.75;5.00;;;;;22.23;61.43;100746.28;4896525;29;46037;-81
2021/06/19 06:25:51;;;;;;;;;5.25;5.00;;;;;22.19;61.13;100737.78;4897887;29;45871;-81
2021/06/19 06:28:16;;;;;;;;;6.25;6.00;;;;;;;;4897813;29;45599;-80
2021/06/19 06:30:41;;;;;;;;;6.75;6.00;;;;;22.26;60.76;100716.53;4897873;29;45659;-81
2021/06/19 06:33:07;;;;;;;;;7.00;7.00;;;;;22.37;61.22;100732.09;4897827;29;46947;-83
2021/06/19 06:35:32;;;;;;;;;10.75;9.75;;;;;22.29;60.61;100724.19;4897769;29;46272;-85
2021/06/19 06:37:58;;;;;;;;;6.00;6.00;;;;;22.40;60.50;100726.41;4898313;29;45584;-83
2021/06/19 06:40:23;;;;;;;;;7.75;7.25;;;;;22.39;60.46;100719.41;4897898;29;45991;-78
2021/06/19 06:42:49;;;;;;;;;9.00;8.25;;;;;22.46;60.28;100747.84;4897664;29;45452;-79
2021/06/19 06:45:14;;;;;;;;;9.00;7.75;;;;;22.44;60.41;100747.22;4880914;29;47204;-88
2021/06/19 06:47:41;;;;;;;;;8.25;7.50;;;;;22.46;60.91;100747.03;4881243;29;45605;-83
2021/06/19 06:53:28;;;;;;;;;7.00;7.00;;;;;22.29;60.84;100726.88;4897610;29;46172;-84
2021/06/19 06:55:53;;;;;;;;;8.50;8.50;;;;;22.53;60.64;100764.81;4897867;29;45916;-84
2021/06/19 06:58:18;;;;;;;;;8.00;7.75;;;;;22.53;60.39;100762.16;4897615;29;45573;-82
2021/06/19 07:00:44;;;;;;;;;7.00;7.00;;;;;22.46;60.80;100731.84;4898844;29;45883;-83
2021/06/19 07:03:09;;;;;;;;;8.00;8.00;;;;;22.69;60.57;100765.66;4882370;29;48286;-83
2021/06/19 07:08:57;;;;;;;;;7.50;7.25;;;;;22.61;60.19;100758.56;4901337;29;45639;-85
2021/06/19 07:11:22;;;;;;;;;6.00;6.00;;;;;22.81;59.96;100782.94;4901337;29;45573;-87
2021/06/19 07:13:48;;;;;;;;;8.25;7.50;;;;;22.89;60.38;100775.63;4905378;29;45831;-87
2021/06/19 07:16:14;;;;;;;;;8.50;8.50;;;;;22.82;60.14;100755.19;4884314;29;47207;-87
2021/06/19 07:18:40;;;;;;;;;10.00;9.25;;;;;22.97;60.09;100762.19;4883025;29;45609;-84
2021/06/19 07:21:05;;;;;;;;;9.75;9.25;;;;;23.05;60.14;100768.47;4901939;29;45656;-86
2021/06/19 07:23:30;;;;;;;;;10.00;9.50;;;;;23.02;59.39;100753.63;4903373;29;47041;-84
2021/06/19 07:25:57;;;;;;;;;7.50;6.00;;;;;23.13;60.05;100747.78;4887222;29;48051;-84
2021/06/19 07:28:23;;;;;;;;;9.50;8.50;;;;;23.14;60.01;100743.28;4907213;29;45633;-83
2021/06/19 07:30:48;;;;;;;;;9.00;9.00;;;;;23.16;59.94;100738.59;4895072;29;45874;-84
2021/06/19 07:33:15;;;;;;;;;8.00;8.00;;;;;23.26;59.91;100745.28;4914072;29;45839;-84
2021/06/19 07:39:02;;;;;;;;;10.75;10.00;;;;;23.04;59.52;100690.13;4907692;29;45608;-82
2021/06/19 07:41:29;;;;;;;;;12.50;11.50;;;;;23.26;59.56;100710.53;4886937;29;45649;-86
2021/06/19 07:43:54;;;;;;;;;10.25;10.25;;;;;23.03;59.74;100661.72;4901890;29;47364;-87
2021/06/19 07:46:20;;;;;;;;;12.25;11.25;;;;;23.12;59.38;100646.38;4884149;29;48067;-88
2021/06/19 07:48:46;;;;;;;;;12.00;11.75;;;;;23.26;59.31;100674.94;4884183;29;45996;-86
2021/06/19 07:51:11;;;;;;;;;11.25;10.50;;;;;23.04;59.49;100639.34;4883927;29;45630;-88
2021/06/19 07:53:36;;;;;;;;;9.75;9.25;;;;;22.95;59.03;100616.41;4884683;29;48520;-87
2021/06/19 07:56:02;;;;;;;;;12.25;12.00;;;;;23.09;59.02;100639.59;4884794;29;48101;-86
2021/06/19 07:58:30;;;;;;;;;10.00;8.50;;;;;23.04;59.39;100634.00;4885620;29;45655;-85
2021/06/19 08:00:56;;;;;;;;;8.75;8.75;;;;;23.20;58.87;100678.38;4885750;29;45549;-88
2021/06/19 08:03:21;;;;;;;;;13.00;13.00;;;;;23.02;59.06;100655.56;4901828;29;45793;-85
2021/06/19 08:09:08;;;;;;;;;10.50;10.25;;;;;23.14;59.20;100647.88;4900447;29;45595;-85
2021/06/19 08:11:34;;;;;;;;;11.00;11.00;;;;;23.04;59.08;100647.34;4883454;29;45778;-84
2021/06/19 08:13:59;;;;;;;;;10.50;10.00;;;;;23.04;59.57;100649.19;4899735;29;47491;-84
2021/06/19 08:16:27;;;;;;;;;10.00;10.00;;;;;23.02;58.99;100633.34;4884292;29;46075;-86
2021/06/19 08:18:52;;;;;;;;;11.50;11.25;;;;;23.05;59.11;100632.16;4884254;29;45874;-86
2021/06/19 08:21:20;;;;;;;;;9.25;9.25;;;;;23.19;59.53;100642.78;4901229;29;45725;-87
2021/06/19 08:23:46;;;;;;;;;11.00;11.00;;;;;23.15;59.34;100630.81;4883665;29;47611;-84
2021/06/19 08:26:11;;;;;;;;;10.25;9.50;;;;;23.04;59.49;100611.78;4900553;29;45486;-85
2021/06/19 08:28:37;;;;;;;;;11.25;10.00;;;;;22.95;59.52;100627.09;4883882;29;45637;-88
2021/06/19 08:31:05;;;;;;;;;9.25;9.25;;;;;22.98;59.34;100650.78;4901456;29;45748;-86
2021/06/19 08:33:31;;;;;;;;;9.50;9.50;;;;;23.07;59.69;100648.81;4899953;29;46596;-83
2021/06/19 08:39:18;;;;;;;;;12.00;11.00;;;;;23.01;59.59;100604.94;4899550;29;45740;-81
2021/06/19 08:41:48;;;;;;;;;11.25;10.75;;;;;23.15;59.73;100633.50;4900260;29;45933;-83
2021/06/19 08:44:19;;;;;;;;;10.00;10.00;;;;;23.19;59.56;100637.44;4883458;29;47888;-83
2021/06/19 08:46:45;;;;;;;;;9.50;9.50;;;;;23.21;59.35;100631.91;4900681;29;46427;-82
2021/06/19 08:49:11;;;;;;;;;14.25;12.25;;;;;23.28;59.03;100641.63;4900166;29;45695;-83
2021/06/19 08:51:38;;;;;;;;;11.25;10.75;;;;;23.13;59.27;100615.97;4900314;29;45766;-82
2021/06/19 08:54:04;;;;;;;;;12.00;11.25;;;;;23.14;59.40;100599.75;4900705;29;45629;-82
2021/06/19 08:56:29;;;;;;;;;11.50;11.00;;;;;23.35;58.98;100636.34;4882946;29;47267;-82
2021/06/19 08:58:54;;;;;;;;;9.75;9.75;;;;;23.28;59.05;100620.25;4900400;29;45935;-83
2021/06/19 09:01:20;;;;;;;;;12.25;11.50;;;;;23.29;59.06;100615.72;4902751;29;45762;-85
2021/06/19 09:03:45;;;;;;;;;10.00;10.00;;;;;23.38;59.52;100623.41;4903219;29;45633;-85
2021/06/19 09:09:33;;;;;;;;;12.00;11.50;;;;;23.46;59.23;100621.66;4906417;29;45655;-83
2021/06/19 09:11:58;;;;;;;;;12.00;11.00;;;;;23.46;58.88;100606.44;4904370;29;45670;-86
2021/06/19 09:14:27;;;;;;;;;9.00;9.00;;;;;23.53;58.88;100619.88;4884017;29;48570;-87
2021/06/19 09:17:04;;;;;;;;;12.50;9.75;;;;;23.43;59.20;100599.59;4899943;29;46235;-83
2021/06/19 09:19:34;;;;;;;;;11.00;10.00;;;;;23.58;59.20;100620.13;4882854;29;45565;-86
2021/06/19 09:22:20;;;;;;;;;9.75;9.00;;;;;23.60;58.66;100605.53;4900897;29;45706;-84
2021/06/19 09:24:47;;;;;;;;;8.25;8.25;;;;;23.65;59.06;100596.91;4882780;29;47916;-84
2021/06/19 09:27:38;;;;;;;;;10.75;10.25;;;;;23.70;58.87;100608.69;4900244;29;46174;-84
2021/06/19 09:30:13;;;;;;;;;10.50;10.00;;;;;23.64;59.03;100604.16;4841596;29;45890;-87
2021/06/19 09:32:44;;;;;;;;;11.75;11.75;;;;;23.78;59.26;100627.28;4842721;29;45610;-84
2021/06/19 09:35:12;;;;;;;;;10.50;10.25;;;;;23.85;59.22;100627.34;4825669;29;46961;-86
2021/06/19 09:37:39;;;;;;;;;9.75;9.75;;;;;23.78;58.63;100610.41;4841803;29;46162;-83
2021/06/19 09:40:23;;;;;;;;;9.00;9.00;;;;;23.96;58.45;100623.31;4844137;29;45644;-84
2021/06/19 09:42:50;;;;;;;;;12.50;11.25;;;;;23.97;58.44;100611.59;4847250;29;45726;-87
2021/06/19 09:45:26;;;;;;;;;12.00;12.00;;;;;23.87;58.81;100584.31;4833309;29;47493;-83
2021/06/19 09:47:52;;;;;;;;;12.75;12.75;;;;;24.07;58.73;100618.25;4849587;29;46599;-87
2021/06/19 09:50:19;;;;;;;;;13.00;13.00;;;;;24.09;58.57;100613.50;4837054;29;45604;-88
2021/06/19 09:52:47;;;;;;;;;11.00;10.75;;;;;23.86;58.50;100566.63;4851773;29;45524;-90
2021/06/19 09:55:14;;;;;;;;;12.25;12.25;;;;;23.89;58.69;100568.91;4852138;29;46458;-83
2021/06/19 09:57:50;;;;;;;;;12.00;11.00;;;;;24.22;58.37;100620.81;4851069;29;46671;-91
2021/06/19 10:00:20;;;;;;;;;12.25;12.00;;;;;24.28;58.49;100621.88;4845861;29;45630;-91
2021/06/19 10:02:48;;;;;;;;;12.25;10.50;;;;;24.30;57.85;100607.25;4829815;29;46012;-87
2021/06/19 10:05:14;;;;;;;;;9.00;8.00;;;;;24.16;58.01;100582.25;4829788;29;48865;-86
2021/06/19 10:07:40;;;;;;;;;11.00;11.00;;;;;24.25;58.32;100578.41;4887161;29;46063;-84
2021/06/19 10:10:08;;;;;;;;;12.00;11.00;;;;;24.51;58.37;100598.28;4901213;29;45544;-88
2021/06/19 10:12:37;;;;;;;;;9.25;9.00;;;;;24.51;57.85;100590.25;4901967;29;45452;-82
2021/06/19 10:15:06;;;;;;;;;10.00;10.00;;;;;24.64;57.77;100590.31;4900248;29;45668;-83
2021/06/19 10:17:35;;;;;;;;;11.50;11.00;;;;;24.59;57.94;100574.84;4883377;29;48329;-86
2021/06/19 10:20:01;;;;;;;;;10.50;9.25;;;;;24.56;57.91;100567.19;4899589;29;45667;-84
2021/06/19 10:22:33;;;;;;;;;12.00;11.50;;;;;24.80;58.02;100594.47;4881482;29;46009;-86
2021/06/19 10:25:05;;;;;;;;;11.00;11.00;;;;;24.76;57.80;100577.16;4898919;29;45543;-88
2021/06/19 10:27:32;;;;;;;;;12.25;12.25;;;;;24.67;57.95;100545.16;4899602;29;46022;-86
2021/06/19 10:29:59;;;;;;;;;11.75;11.75;;;;;24.92;57.62;100583.00;4899186;29;45747;-85
2021/06/19 10:32:45;;;;;;;;;10.75;10.25;;;;;24.96;57.42;100568.16;4900192;29;45548;-84
2021/06/19 10:35:15;;;;;;;;;11.25;11.00;;;;;24.93;57.40;100570.44;4904852;29;46159;-86
2021/06/19 10:37:41;;;;;;;;;10.00;10.00;;;;;24.92;57.03;100555.38;4899349;29;45832;-83
2021/06/19 10:40:21;;;;;;;;;13.50;12.75;;;;;25.14;57.41;100569.44;4898539;29;45674;-87
2021/06/19 10:42:47;;;;;;;;;12.00;11.00;;;;;25.14;57.17;100561.38;4881718;29;45664;-85
2021/06/19 10:45:22;;;;;;;;;11.50;10.00;;;;;25.26;57.18;100562.44;4881452;29;46810;-82
2021/06/19 10:48:00;;;;;;;;;12.25;11.25;;;;;25.15;56.98;100528.19;4899109;29;46204;-83
2021/06/19 10:50:26;;;;;;;;;11.50;11.25;;;;;25.23;56.94;100533.31;4899455;29;45689;-84
2021/06/19 10:53:11;;;;;;;;;11.50;10.25;;;;;25.28;56.96;100531.69;4882375;29;45968;-80
2021/06/19 10:55:42;;;;;;;;;13.00;11.75;;;;;25.42;56.94;100545.94;4898298;29;45887;-77
2021/06/19 10:58:29;;;;;;;;;12.25;11.75;;;;;25.41;56.81;100539.72;4897947;29;45970;-81
2021/06/19 11:01:03;;;;;;;;;10.00;10.00;;;;;25.50;56.34;100537.66;4882542;29;45611;-81
2021/06/19 11:03:44;;;;;;;;;12.00;11.50;;;;;25.45;56.83;100529.41;4901157;29;45623;-81
2021/06/19 11:06:36;;;;;;;;;12.00;10.25;;;;;25.57;56.32;100537.69;4901038;29;45651;-84
2021/06/19 11:09:15;;;;;;;;;14.50;13.25;;;;;25.61;56.17;100534.38;4901300;29;45566;-84
2021/06/19 11:12:02;;;;;;;;;10.00;10.00;;;;;25.64;56.24;100519.72;4901687;29;45562;-81
2021/06/19 11:14:40;;;;;;;;;10.50;10.50;;;;;25.69;56.18;100523.44;4902846;29;45912;-81
2021/06/19 11:17:26;;;;;;;;;11.50;11.00;;;;;25.72;55.87;100523.00;4904918;29;46623;-83
2021/06/19 11:22:54;;;;;;;;;10.00;8.50;;;;;25.80;55.55;100521.97;4906337;28;45714;-88
2021/06/19 11:25:54;;;;;;;;;13.25;12.00;;;;;25.77;55.66;100509.78;4888384;29;45573;-82
2021/06/19 11:28:19;;;;;;;;;13.75;13.25;;;;;25.86;55.44;100526.47;4885570;29;47432;-80
2021/06/19 11:30:51;;;;;;;;;12.00;12.00;;;;;25.80;55.26;100509.34;4883866;29;46162;-85
2021/06/19 11:33:16;;;;;;;;;14.00;14.00;;;;;25.91;54.84;100524.78;4901959;29;45413;-83
2021/06/19 11:39:08;;;;;;;;;13.00;12.50;;;;;26.01;55.17;100516.31;4900824;29;46190;-82
2021/06/19 11:41:39;;;;;;;;;12.50;11.75;;;;;26.07;54.58;100522.72;4900806;29;46265;-88
2021/06/19 11:44:14;;;;;;;;;11.00;10.75;;;;;26.04;54.47;100512.38;4903522;29;45689;-80
2021/06/19 11:46:47;;;;;;;;;13.00;13.00;;;;;26.18;54.19;100516.69;4908336;29;45499;-82
2021/06/19 11:49:12;;;;;;;;;10.75;10.75;;;;;26.23;53.87;100515.03;4888975;29;47021;-80
2021/06/19 11:55:00;;;;;;;;;13.00;13.00;;;;;26.33;53.53;100513.75;4903999;29;45654;-81
2021/06/19 11:57:29;;;;;;;;;12.75;11.25;;;;;26.44;53.73;100502.31;4903491;29;45456;-82
2021/06/19 12:00:14;;;;;;;;;13.00;12.50;;;;;26.53;53.41;100507.22;4902983;29;45496;-79
2021/06/19 12:02:41;;;;;;;;;13.50;12.25;;;;;26.52;53.22;100485.94;4900152;29;46204;-81
2021/06/19 12:05:13;;;;;;;;;11.00;11.00;;;;;26.69;53.22;100495.13;4900287;29;45488;-81
2021/06/19 12:11:00;;;;;;;;;12.00;11.50;;;;;26.81;52.88;100479.94;4899283;29;45583;-81
2021/06/19 12:13:31;;;;;;;;;11.50;10.25;;;;;26.92;53.05;100478.47;4882884;29;45741;-82
2021/06/19 12:15:57;;;;;;;;;11.25;11.25;;;;;27.03;52.91;100477.75;4900414;29;45469;-82
2021/06/19 12:18:23;;;;;;;;;10.50;9.00;;;;;27.14;52.74;100485.09;4899894;29;45595;-83
2021/06/19 12:21:00;;;;;;;;;15.00;15.00;;;;;27.15;52.16;100476.00;4899069;29;45617;-82
2021/06/19 12:23:40;;;;;;;;;13.25;12.25;;;;;27.25;52.17;100472.81;4899304;29;45461;-79
2021/06/19 12:26:08;;;;;;;;;12.75;12.00;;;;;27.30;52.12;100465.72;4899642;29;45610;-84
2021/06/19 12:28:35;;;;;;;;;14.50;14.00;;;;;27.37;51.69;100465.66;4899927;29;45570;-82
2021/06/19 12:31:03;;;;;;;;;11.00;11.00;;;;;27.45;51.54;100459.97;4899631;29;46595;-84
2021/06/19 12:33:30;;;;;;;;;15.25;14.25;;;;;27.51;51.52;100457.25;4899793;29;45908;-79
2021/06/19 12:35:56;;;;;;;;;12.75;11.25;;;;;27.54;51.41;100456.78;4899987;29;45527;-83
2021/06/19 12:38:24;;;;;;;;;16.50;15.50;;;;;27.57;51.00;100447.47;4899742;29;45508;-81
2021/06/19 12:40:50;;;;;;;;;15.75;14.00;;;;;27.54;51.04;100440.63;4881916;29;47460;-81